Time;durP1;ratioP1;P1;durP2;ratioP2;P2;SDS_P1;SDS_P2;PMS_P1;PMS_P2;Temp;Humidity;BMP_temperature;BMP_pressure;BME280_temperature;BME280_humidity;BME280_pressure;Samples;Min_cycle;Max_cycle;Signal;HPM_P1;HPM_P2
2023/12/29 00:01:10;;;;;;;4.57;1.17;;;11.40;99.80;;;;;;4925860;28;20043;-93
2023/12/29 00:03:36;;;;;;;9.15;1.10;;;11.40;99.80;;;;;;4972365;28;20039;-93
2023/12/29 00:06:05;;;;;;;5.85;1.10;;;11.40;99.70;;;;;;4966748;28;20094;-92
2023/12/29 00:08:31;;;;;;;5.72;0.98;;;11.40;99.80;;;;;;4973058;28;20032;-91
2023/12/29 00:10:57;;;;;;;4.25;1.35;;;11.40;99.70;;;;;;4985943;28;20768;-93
2023/12/29 00:13:25;;;;;;;6.25;1.08;;;11.50;99.70;;;;;;4964268;28;20037;-92
2023/12/29 00:15:56;;;;;;;9.50;1.10;;;11.40;99.80;;;;;;4963902;28;20035;-93
2023/12/29 00:18:22;;;;;;;3.75;1.08;;;11.40;99.70;;;;;;4938216;28;20230;-90
2023/12/29 00:20:48;;;;;;;8.32;1.70;;;11.50;99.60;;;;;;4961972;28;20027;-92
2023/12/29 00:23:15;;;;;;;3.97;1.00;;;11.50;99.60;;;;;;4966198;28;20573;-91
2023/12/29 00:25:40;;;;;;;5.63;0.88;;;11.50;99.60;;;;;;4964212;28;20285;-92
2023/12/29 00:28:06;;;;;;;4.85;1.92;;;11.50;99.60;;;;;;4947056;29;20109;-93
2023/12/29 00:30:37;;;;;;;7.13;1.20;;;11.50;99.70;;;;;;4944684;28;20031;-93
2023/12/29 00:33:03;;;;;;;8.57;1.10;;;11.40;99.50;;;;;;4925040;28;20039;-93
2023/12/29 00:35:28;;;;;;;4.47;1.10;;;11.50;99.50;;;;;;4933318;28;20039;-92
2023/12/29 00:37:54;;;;;;;7.95;1.40;;;11.50;99.60;;;;;;4947097;29;20118;-92
2023/12/29 00:40:23;;;;;;;5.43;1.23;;;11.50;99.70;;;;;;4932719;29;20028;-92
2023/12/29 00:42:49;;;;;;;5.07;1.02;;;11.50;99.70;;;;;;4946305;28;20564;-93
2023/12/29 00:45:17;;;;;;;9.30;1.48;;;11.50;99.90;;;;;;4943820;28;20028;-91
2023/12/29 00:47:43;;;;;;;13.93;1.35;;;11.50;99.80;;;;;;4960798;28;20038;-95
2023/12/29 00:50:09;;;;;;;7.20;1.33;;;11.50;99.90;;;;;;4947186;29;20023;-91
2023/12/29 00:52:36;;;;;;;6.07;1.38;;;11.50;99.90;;;;;;4948462;28;20038;-93
2023/12/29 00:55:02;;;;;;;6.25;1.42;;;11.50;99.90;;;;;;4945372;29;20031;-93
2023/12/29 00:57:27;;;;;;;4.22;1.05;;;11.50;99.90;;;;;;4950209;28;20035;-95
2023/12/29 00:59:53;;;;;;;4.65;0.90;;;11.50;99.90;;;;;;4950512;29;20032;-93
2023/12/29 01:02:19;;;;;;;7.05;1.30;;;11.60;99.90;;;;;;4947758;28;20410;-94
2023/12/29 01:04:44;;;;;;;5.13;1.02;;;11.70;99.90;;;;;;4951922;29;20051;-95
2023/12/29 01:07:10;;;;;;;4.40;1.00;;;11.50;99.90;;;;;;4952318;28;20035;-91
2023/12/29 01:09:41;;;;;;;7.90;1.30;;;11.50;99.90;;;;;;4950661;28;20185;-92
2023/12/29 01:12:07;;;;;;;6.45;1.10;;;11.50;99.90;;;;;;4958980;28;20031;-91
2023/12/29 01:14:33;;;;;;;4.82;1.08;;;11.50;99.90;;;;;;4957433;28;20061;-94
2023/12/29 01:16:58;;;;;;;9.68;1.35;;;11.50;99.90;;;;;;4960335;29;20049;-91
2023/12/29 01:19:24;;;;;;;7.53;1.58;;;11.60;99.90;;;;;;4954468;29;20050;-91
2023/12/29 01:21:49;;;;;;;7.43;1.33;;;11.60;99.90;;;;;;5040286;28;20023;-91
2023/12/29 01:24:15;;;;;;;7.20;1.33;;;11.60;99.90;;;;;;4954557;28;20032;-93
2023/12/29 01:26:43;;;;;;;5.20;1.42;;;11.70;99.90;;;;;;4955270;28;20074;-93
2023/12/29 01:29:11;;;;;;;6.07;1.10;;;11.60;99.90;;;;;;4957335;28;20015;-92
2023/12/29 01:31:37;;;;;;;8.30;1.38;;;11.60;99.90;;;;;;4956822;28;20047;-88
2023/12/29 01:34:02;;;;;;;9.68;1.25;;;11.60;99.90;;;;;;4954482;28;20030;-93
2023/12/29 01:36:28;;;;;;;4.25;1.08;;;11.60;99.90;;;;;;4954248;28;20058;-90
2023/12/29 01:38:54;;;;;;;4.65;1.20;;;11.60;99.90;;;;;;4955912;28;20122;-93
2023/12/29 01:41:20;;;;;;;6.63;1.30;;;11.60;99.90;;;;;;4967249;28;20125;-92
2023/12/29 01:44:01;;;;;;;6.28;1.02;;;11.60;99.90;;;;;;4975017;28;20043;-92
2023/12/29 01:46:34;;;;;;;6.38;1.23;;;11.70;99.90;;;;;;4965462;28;20039;-91
2023/12/29 01:49:01;;;;;;;11.77;0.98;;;11.60;99.90;;;;;;4953510;29;20031;-91
2023/12/29 01:51:28;;;;;;;7.38;1.15;;;11.60;99.90;;;;;;4969797;28;20039;-90
2023/12/29 01:53:56;;;;;;;9.07;1.00;;;11.70;99.90;;;;;;4942637;29;20130;-93
2023/12/29 01:56:21;;;;;;;4.15;0.80;;;11.60;99.90;;;;;;4954002;28;20039;-90
2023/12/29 01:58:49;;;;;;;7.32;0.80;;;11.60;99.90;;;;;;4954399;28;20037;-92
2023/12/29 02:01:16;;;;;;;11.57;1.30;;;11.60;99.90;;;;;;4955565;29;20023;-92
2023/12/29 02:03:43;;;;;;;2.47;0.90;;;11.60;99.90;;;;;;4953569;28;20035;-94
2023/12/29 02:06:09;;;;;;;4.45;1.33;;;11.50;99.90;;;;;;4954754;29;20031;-93
2023/12/29 02:08:40;;;;;;;7.93;1.20;;;11.60;99.90;;;;;;4957707;28;20037;-94
2023/12/29 02:11:07;;;;;;;7.00;0.75;;;11.60;99.90;;;;;;5003584;28;20032;-92
2023/12/29 02:13:32;;;;;;;8.63;1.17;;;11.50;99.90;;;;;;4953868;28;20195;-95
2023/12/29 02:16:05;;;;;;;5.10;1.23;;;11.50;99.90;;;;;;4949203;28;20038;-93
2023/12/29 02:18:36;;;;;;;2.13;0.73;;;11.50;99.90;;;;;;4958775;28;20065;-94
2023/12/29 02:21:02;;;;;;;6.32;1.00;;;11.50;99.90;;;;;;4957022;29;20035;-93
2023/12/29 02:23:29;;;;;;;9.48;1.17;;;11.60;99.90;;;;;;4957206;28;20091;-92
2023/12/29 02:26:02;;;;;;;5.53;1.20;;;11.50;99.90;;;;;;4958791;28;20031;-93
2023/12/29 02:28:28;;;;;;;6.47;1.17;;;11.50;99.90;;;;;;4964653;28;20031;-93
2023/12/29 02:31:14;;;;;;;6.43;1.30;;;11.50;99.90;;;;;;4964415;29;20126;-94
2023/12/29 02:33:43;;;;;;;8.07;1.40;;;11.40;99.90;;;;;;4962591;28;20095;-87
2023/12/29 02:36:10;;;;;;;9.48;0.95;;;11.50;99.90;;;;;;4961716;28;20019;-95
2023/12/29 02:38:36;;;;;;;4.95;1.27;;;11.50;99.90;;;;;;4960775;28;20037;-96
2023/12/29 02:41:03;;;;;;;8.27;1.23;;;11.50;99.90;;;;;;4953737;29;20047;-95
2023/12/29 02:43:31;;;;;;;7.03;1.00;;;11.50;99.90;;;;;;4955324;28;20019;-94
2023/12/29 02:45:58;;;;;;;15.80;0.93;;;11.50;99.90;;;;;;4961775;29;20294;-93
2023/12/29 02:48:24;;;;;;;7.47;1.17;;;11.60;99.90;;;;;;4940164;28;20027;-92
2023/12/29 02:50:49;;;;;;;7.13;0.88;;;11.50;99.90;;;;;;4956371;28;20520;-92
2023/12/29 02:53:15;;;;;;;5.07;0.82;;;11.60;99.90;;;;;;4955321;28;20093;-93
2023/12/29 02:55:41;;;;;;;6.78;0.90;;;11.50;99.90;;;;;;4958406;28;20054;-94
2023/12/29 02:58:08;;;;;;;9.35;1.33;;;11.50;99.90;;;;;;5003008;28;20042;-92
2023/12/29 03:00:34;;;;;;;5.45;0.95;;;11.50;99.90;;;;;;4962054;28;20035;-92
2023/12/29 03:02:59;;;;;;;5.45;1.23;;;11.50;99.90;;;;;;4955707;28;20031;-93
2023/12/29 03:05:26;;;;;;;8.73;1.83;;;11.50;99.90;;;;;;4950247;29;20059;-93
2023/12/29 03:07:51;;;;;;;9.13;1.17;;;11.50;99.90;;;;;;4939508;29;20023;-91
2023/12/29 03:10:17;;;;;;;5.50;1.05;;;11.50;99.90;;;;;;4949402;28;20588;-88
2023/12/29 03:12:43;;;;;;;6.00;1.00;;;11.50;99.90;;;;;;4946233;29;20035;-90
2023/12/29 03:15:09;;;;;;;6.35;0.95;;;11.50;99.90;;;;;;4945830;28;20027;-89
2023/12/29 03:17:34;;;;;;;7.63;0.98;;;11.50;99.90;;;;;;4934834;29;20058;-91
2023/12/29 03:20:00;;;;;;;4.68;1.15;;;11.50;99.90;;;;;;4950340;28;20031;-91
2023/12/29 03:22:26;;;;;;;7.45;1.20;;;11.50;99.90;;;;;;4951387;28;20038;-93
2023/12/29 03:24:52;;;;;;;7.13;1.20;;;11.50;99.90;;;;;;4950596;29;20031;-93
2023/12/29 03:27:20;;;;;;;3.15;0.75;;;11.50;99.90;;;;;;4952135;29;20081;-93
2023/12/29 03:29:45;;;;;;;6.05;1.08;;;11.50;99.90;;;;;;4952169;28;20616;-91
2023/12/29 03:32:11;;;;;;;12.10;1.30;;;11.50;99.90;;;;;;4952678;28;20043;-89
2023/12/29 03:34:37;;;;;;;11.20;0.98;;;11.50;99.90;;;;;;4950094;28;20032;-91
2023/12/29 03:37:03;;;;;;;5.70;1.00;;;11.50;99.90;;;;;;4949839;29;20051;-92
2023/12/29 03:39:29;;;;;;;2.88;0.93;;;11.50;99.90;;;;;;4950985;28;20027;-90
2023/12/29 03:41:55;;;;;;;3.50;0.80;;;11.50;99.90;;;;;;4950783;29;20622;-90
2023/12/29 03:44:20;;;;;;;3.33;0.80;;;11.50;99.90;;;;;;4950249;28;20137;-90
2023/12/29 03:46:46;;;;;;;4.10;0.88;;;11.50;99.90;;;;;;4950693;28;20078;-91
2023/12/29 03:49:13;;;;;;;3.75;0.90;;;11.70;99.90;;;;;;4938292;28;20059;-92
2023/12/29 03:51:39;;;;;;;5.97;0.70;;;11.50;99.90;;;;;;4962846;28;20027;-91
2023/12/29 03:54:04;;;;;;;4.32;0.70;;;11.60;99.90;;;;;;4964877;28;20031;-90
2023/12/29 03:56:31;;;;;;;5.07;0.60;;;11.50;99.90;;;;;;4947806;28;20055;-88
2023/12/29 03:58:58;;;;;;;3.08;0.68;;;11.60;99.90;;;;;;4967587;28;20096;-91
2023/12/29 04:01:25;;;;;;;2.75;0.40;;;11.60;99.90;;;;;;4952181;28;20046;-92
2023/12/29 04:03:50;;;;;;;3.95;0.63;;;11.60;99.90;;;;;;4951408;28;20027;-90
2023/12/29 04:06:16;;;;;;;5.20;0.60;;;11.60;99.90;;;;;;4950597;28;20050;-89
2023/12/29 04:08:43;;;;;;;2.00;0.55;;;11.60;99.90;;;;;;4953122;28;20193;-90
2023/12/29 04:11:09;;;;;;;5.68;0.80;;;11.50;99.90;;;;;;4953033;28;20039;-91
2023/12/29 04:13:35;;;;;;;1.00;0.57;;;11.50;99.90;;;;;;4950901;28;20023;-92
2023/12/29 04:16:01;;;;;;;3.10;0.47;;;11.40;99.90;;;;;;4955699;29;20087;-93
2023/12/29 04:18:28;;;;;;;3.63;0.50;;;11.40;99.90;;;;;;4978520;28;20023;-93
2023/12/29 04:20:54;;;;;;;3.88;1.48;;;11.40;99.90;;;;;;4954695;28;20031;-91
2023/12/29 04:23:20;;;;;;;2.70;0.50;;;11.40;99.90;;;;;;4953854;28;20030;-91
2023/12/29 04:25:46;;;;;;;6.35;0.70;;;11.50;99.90;;;;;;4950074;29;20028;-92
2023/12/29 04:28:16;;;;;;;2.10;0.40;;;11.30;99.90;;;;;;4953737;28;20037;-93
2023/12/29 04:30:42;;;;;;;1.77;0.40;;;11.30;99.90;;;;;;4947897;28;20139;-89
2023/12/29 04:33:07;;;;;;;5.57;0.57;;;11.30;99.90;;;;;;4962075;28;20122;-92
2023/12/29 04:35:33;;;;;;;3.65;1.10;;;11.30;99.90;;;;;;4950345;28;20032;-90
2023/12/29 04:37:59;;;;;;;3.58;0.63;;;11.40;99.90;;;;;;4977473;28;20102;-91
2023/12/29 04:40:24;;;;;;;3.80;0.60;;;11.30;99.90;;;;;;4956895;28;20020;-90
2023/12/29 04:42:52;;;;;;;3.53;0.50;;;11.20;99.90;;;;;;4938135;28;20398;-92
2023/12/29 04:45:18;;;;;;;5.40;1.58;;;11.20;99.90;;;;;;4950564;29;20027;-92
2023/12/29 04:47:43;;;;;;;5.47;1.10;;;11.20;99.90;;;;;;4979274;28;20560;-92
2023/12/29 04:50:09;;;;;;;1.17;0.45;;;11.20;99.90;;;;;;4957700;28;20062;-92
2023/12/29 04:52:35;;;;;;;3.20;1.52;;;11.30;99.90;;;;;;4952462;28;20036;-90
2023/12/29 04:55:00;;;;;;;3.42;0.60;;;11.30;99.90;;;;;;4953411;28;20104;-91
2023/12/29 04:57:26;;;;;;;2.28;0.57;;;11.20;99.90;;;;;;4952256;28;20687;-91
2023/12/29 04:59:52;;;;;;;3.00;0.90;;;11.20;99.90;;;;;;4962832;28;20130;-91
2023/12/29 05:02:19;;;;;;;2.60;0.50;;;11.30;99.90;;;;;;4953125;28;20114;-89
2023/12/29 05:04:45;;;;;;;5.78;0.70;;;11.30;99.90;;;;;;4946629;28;20042;-91
2023/12/29 05:07:11;;;;;;;2.45;0.57;;;11.30;99.90;;;;;;4963209;28;20207;-91
2023/12/29 05:09:37;;;;;;;1.65;0.52;;;11.20;99.90;;;;;;4951975;28;20669;-91
2023/12/29 05:12:04;;;;;;;6.60;0.65;;;11.20;99.90;;;;;;4952591;28;20039;-92
2023/12/29 05:14:30;;;;;;;1.92;0.45;;;11.10;99.90;;;;;;4954313;28;20023;-93
2023/12/29 05:16:58;;;;;;;1.13;0.40;;;11.10;99.90;;;;;;4949967;28;20367;-91
2023/12/29 05:19:23;;;;;;;2.88;0.70;;;11.10;99.90;;;;;;4955803;28;20053;-91
2023/12/29 05:21:51;;;;;;;2.20;0.70;;;11.10;99.90;;;;;;4954286;28;20125;-92
2023/12/29 05:24:17;;;;;;;2.40;0.50;;;11.10;99.90;;;;;;4955885;28;20026;-93
2023/12/29 05:26:45;;;;;;;3.42;0.55;;;11.10;99.90;;;;;;4955089;28;20039;-91
2023/12/29 05:29:11;;;;;;;0.82;0.50;;;11.00;99.90;;;;;;4955226;29;20031;-89
2023/12/29 05:31:37;;;;;;;3.15;0.85;;;11.00;99.90;;;;;;4957635;28;20066;-91
2023/12/29 05:34:02;;;;;;;4.03;0.68;;;11.10;99.90;;;;;;4944978;28;20049;-92
2023/12/29 05:36:28;;;;;;;2.55;0.98;;;11.10;99.90;;;;;;4962839;28;20092;-92
2023/12/29 05:38:56;;;;;;;2.88;0.68;;;11.10;99.90;;;;;;4965782;28;20042;-91
2023/12/29 05:41:21;;;;;;;2.80;0.70;;;11.10;99.90;;;;;;4964891;28;20031;-92
2023/12/29 05:43:49;;;;;;;4.15;1.02;;;11.10;99.90;;;;;;4957597;28;20034;-91
2023/12/29 05:46:15;;;;;;;5.18;0.68;;;11.10;99.90;;;;;;4955049;28;20035;-92
2023/12/29 05:48:40;;;;;;;2.08;0.70;;;11.10;99.90;;;;;;4953687;29;20031;-92
2023/12/29 05:51:13;;;;;;;5.10;0.82;;;11.10;99.90;;;;;;4953378;28;20031;-92
2023/12/29 05:53:43;;;;;;;1.77;0.95;;;11.10;99.90;;;;;;4953456;28;20482;-91
2023/12/29 05:56:12;;;;;;;5.32;0.90;;;11.10;99.90;;;;;;4956043;28;20106;-92
2023/12/29 05:58:37;;;;;;;3.28;0.70;;;11.10;99.90;;;;;;4952222;28;20031;-92
2023/12/29 06:01:03;;;;;;;6.78;1.08;;;11.10;99.90;;;;;;4961244;28;20378;-90
2023/12/29 06:03:29;;;;;;;5.68;0.98;;;11.00;99.90;;;;;;4950400;28;20023;-90
2023/12/29 06:05:57;;;;;;;8.63;1.20;;;11.00;99.90;;;;;;4956744;28;20035;-88
2023/12/29 06:08:22;;;;;;;;;;;11.10;99.90;;;;;;4961257;28;20050;-91
2023/12/29 06:10:48;;;;;;;10.75;1.60;;;11.10;99.90;;;;;;4950556;28;19914;-90
2023/12/29 06:13:15;;;;;;;4.05;0.90;;;11.10;99.90;;;;;;4952527;28;20027;-91
2023/12/29 06:15:40;;;;;;;4.30;1.05;;;11.10;99.90;;;;;;4966053;28;20048;-91
2023/12/29 06:18:08;;;;;;;5.05;1.25;;;11.10;99.90;;;;;;4950140;28;20024;-91
2023/12/29 06:20:34;;;;;;;5.88;1.17;;;11.10;99.90;;;;;;4951370;28;20028;-92
2023/12/29 06:23:00;;;;;;;3.60;0.93;;;11.10;99.90;;;;;;4949912;29;20119;-91
2023/12/29 06:25:26;;;;;;;9.77;1.73;;;11.10;99.90;;;;;;4958201;28;20558;-89
2023/12/29 06:27:52;;;;;;;12.40;1.27;;;11.10;99.90;;;;;;4964673;28;20028;-90
2023/12/29 06:30:17;;;;;;;6.57;1.17;;;11.20;99.90;;;;;;4939234;29;20390;-91
2023/12/29 06:32:46;;;;;;;9.07;1.20;;;11.10;99.90;;;;;;4948381;28;20126;-89
2023/12/29 06:35:12;;;;;;;7.70;1.17;;;11.20;99.90;;;;;;4951158;28;20023;-90
2023/12/29 06:37:38;;;;;;;2.53;0.90;;;11.10;99.90;;;;;;4946368;28;20101;-90
2023/12/29 06:40:07;;;;;;;5.15;1.38;;;11.10;99.90;;;;;;4963048;28;20552;-88
2023/12/29 06:42:33;;;;;;;13.32;1.60;;;11.00;99.90;;;;;;4933113;28;20027;-87
2023/12/29 06:44:58;;;;;;;10.75;1.70;;;11.00;99.90;;;;;;4948947;29;20023;-89
2023/12/29 06:47:24;;;;;;;6.10;1.38;;;11.00;99.90;;;;;;4948620;28;20585;-88
2023/12/29 06:49:50;;;;;;;13.27;1.40;;;11.10;99.90;;;;;;4946141;29;20043;-88
2023/12/29 06:52:16;;;;;;;6.65;1.70;;;11.10;99.90;;;;;;4949798;28;20620;-88
2023/12/29 06:54:42;;;;;;;6.78;1.73;;;11.10;99.90;;;;;;4940961;28;20031;-89
2023/12/29 06:57:08;;;;;;;6.75;1.35;;;11.10;99.90;;;;;;4945567;28;20027;-89
2023/12/29 06:59:34;;;;;;;10.48;1.48;;;11.00;99.90;;;;;;4962850;28;20718;-89
2023/12/29 07:01:59;;;;;;;7.05;1.55;;;11.00;99.90;;;;;;4944315;28;20070;-90
2023/12/29 07:04:28;;;;;;;5.88;1.45;;;11.00;99.90;;;;;;4930743;28;20035;-88
2023/12/29 07:06:53;;;;;;;5.88;1.42;;;11.00;99.90;;;;;;4943838;29;20051;-88
2023/12/29 07:09:19;;;;;;;12.35;1.70;;;11.00;99.90;;;;;;4947661;28;20059;-89
2023/12/29 07:11:49;;;;;;;7.30;1.52;;;11.00;99.90;;;;;;4949043;28;20028;-89
2023/12/29 07:14:15;;;;;;;9.82;1.60;;;11.10;99.90;;;;;;4948920;28;20023;-89
2023/12/29 07:16:44;;;;;;;11.88;1.50;;;11.10;99.90;;;;;;4947518;28;20046;-89
2023/12/29 07:19:11;;;;;;;7.50;1.58;;;11.10;99.90;;;;;;4948052;29;20152;-90
2023/12/29 07:21:37;;;;;;;6.05;1.30;;;11.10;99.90;;;;;;4947465;28;20036;-90
2023/12/29 07:24:03;;;;;;;9.73;1.52;;;11.10;99.90;;;;;;4948909;28;20632;-89
2023/12/29 07:26:28;;;;;;;8.18;1.45;;;11.10;99.90;;;;;;4948286;28;20035;-90
2023/12/29 07:28:54;;;;;;;12.15;1.52;;;11.10;99.90;;;;;;4944940;28;20042;-91
2023/12/29 07:31:21;;;;;;;10.93;2.20;;;11.10;99.90;;;;;;4936606;29;20573;-90
2023/12/29 07:33:47;;;;;;;8.70;1.48;;;11.10;99.90;;;;;;4963836;28;20038;-87
2023/12/29 07:36:12;;;;;;;11.57;2.05;;;11.10;99.90;;;;;;4935050;28;20032;-91
2023/12/29 07:38:38;;;;;;;8.13;1.45;;;11.10;99.90;;;;;;4955809;28;20058;-88
2023/12/29 07:41:05;;;;;;;10.90;2.33;;;11.10;99.90;;;;;;4946634;28;20035;-90
2023/12/29 07:43:34;;;;;;;7.45;1.55;;;11.10;99.90;;;;;;4944718;28;20035;-89
2023/12/29 07:46:00;;;;;;;7.10;1.35;;;11.20;99.90;;;;;;4946050;28;20023;-90
2023/12/29 07:48:25;;;;;;;11.32;1.60;;;11.20;99.90;;;;;;4952534;28;20686;-88
2023/12/29 07:50:51;;;;;;;9.60;1.40;;;11.20;99.90;;;;;;4946382;29;20066;-91
2023/12/29 07:53:18;;;;;;;9.45;1.88;;;11.20;99.90;;;;;;4945457;28;20409;-90
2023/12/29 07:55:46;;;;;;;9.77;1.77;;;11.20;99.90;;;;;;4945791;28;20031;-89
2023/12/29 07:58:12;;;;;;;9.07;2.17;;;11.30;99.90;;;;;;4951995;28;20027;-88
2023/12/29 08:00:37;;;;;;;11.18;1.55;;;11.30;99.90;;;;;;4945181;28;20032;-90
2023/12/29 08:03:03;;;;;;;5.28;1.05;;;11.30;99.90;;;;;;4954800;28;20039;-92
2023/12/29 08:05:30;;;;;;;10.10;2.03;;;11.30;99.90;;;;;;4949242;28;20057;-88
2023/12/29 08:07:58;;;;;;;8.48;1.92;;;11.30;99.90;;;;;;4953066;28;20511;-90
2023/12/29 08:10:23;;;;;;;;;;;11.30;99.90;;;;;;4951836;28;20143;-88
2023/12/29 08:12:51;;;;;;;15.55;1.73;;;11.30;99.90;;;;;;4951706;28;20417;-91
2023/12/29 08:15:17;;;;;;;;;;;11.30;99.90;;;;;;4948314;28;20086;-88
2023/12/29 08:17:42;;;;;;;10.35;1.83;;;11.30;99.90;;;;;;4948462;28;19977;-91
2023/12/29 08:20:09;;;;;;;10.52;2.25;;;11.30;99.90;;;;;;4948133;28;20020;-89
2023/12/29 08:22:36;;;;;;;15.43;1.92;;;11.30;99.90;;;;;;4943198;28;20110;-91
2023/12/29 08:25:03;;;;;;;10.65;1.50;;;11.30;99.90;;;;;;4957173;28;20031;-91
2023/12/29 08:27:31;;;;;;;10.27;1.30;;;11.30;99.90;;;;;;4955943;28;20082;-91
2023/12/29 08:29:57;;;;;;;;;;;11.40;99.90;;;;;;5034912;28;20035;-92
2023/12/29 08:32:22;;;;;;;10.35;1.55;;;11.30;99.90;;;;;;4948882;28;20408;-91
2023/12/29 08:34:48;;;;;;;6.10;1.17;;;11.50;99.90;;;;;;4952859;28;20032;-91
2023/12/29 08:37:19;;;;;;;8.32;1.25;;;11.40;99.90;;;;;;4952658;28;20088;-87
2023/12/29 08:39:47;;;;;;;12.52;2.30;;;11.40;99.90;;;;;;4950989;28;20118;-91
2023/12/29 08:42:13;;;;;;;5.40;1.42;;;11.40;99.90;;;;;;4952812;28;20069;-91
2023/12/29 08:44:39;;;;;;;16.55;3.13;;;11.40;99.90;;;;;;4947414;28;20445;-91
2023/12/29 08:47:08;;;;;;;12.07;1.45;;;11.40;99.90;;;;;;4953323;28;20118;-90
2023/12/29 08:49:38;;;;;;;14.25;2.13;;;11.50;99.90;;;;;;4950635;29;20557;-93
2023/12/29 08:52:04;;;;;;;5.68;1.67;;;11.50;99.90;;;;;;4953279;28;20031;-88
2023/12/29 08:54:32;;;;;;;13.73;2.60;;;11.50;99.90;;;;;;4945585;28;20031;-89
2023/12/29 08:56:57;;;;;;;;;;;11.60;99.90;;;;;;4951838;28;20019;-89
2023/12/29 08:59:23;;;;;;;14.68;1.83;;;11.50;99.90;;;;;;4958155;28;19925;-90
2023/12/29 09:01:49;;;;;;;12.38;1.63;;;11.60;99.90;;;;;;4949941;28;20027;-89
2023/12/29 09:04:15;;;;;;;18.55;2.13;;;11.50;99.90;;;;;;4951530;28;20027;-92
2023/12/29 09:06:40;;;;;;;7.75;1.83;;;11.60;99.90;;;;;;4948652;28;20034;-88
2023/12/29 09:09:06;;;;;;;11.65;1.52;;;11.50;99.90;;;;;;4941753;28;20151;-90
2023/12/29 09:11:31;;;;;;;6.70;1.60;;;11.60;99.90;;;;;;4937934;28;20487;-91
2023/12/29 09:13:57;;;;;;;15.13;2.13;;;11.60;99.90;;;;;;4930155;28;20055;-90
2023/12/29 09:16:23;;;;;;;5.93;1.42;;;11.50;99.90;;;;;;4945842;29;20027;-87
2023/12/29 09:18:48;;;;;;;8.90;1.55;;;11.60;99.90;;;;;;4940552;29;20031;-89
2023/12/29 09:21:14;;;;;;;13.07;1.92;;;11.60;99.90;;;;;;4946788;28;20036;-89
2023/12/29 09:23:40;;;;;;;9.02;1.52;;;11.70;99.90;;;;;;4955486;28;20035;-91
2023/12/29 09:26:06;;;;;;;9.70;1.42;;;11.60;99.90;;;;;;4948587;28;20039;-93
2023/12/29 09:28:33;;;;;;;10.57;1.38;;;11.60;99.90;;;;;;4933446;28;20039;-89
2023/12/29 09:31:00;;;;;;;8.63;1.98;;;11.60;99.90;;;;;;4950596;29;20091;-91
2023/12/29 09:33:26;;;;;;;5.35;0.93;;;11.60;99.90;;;;;;4937810;28;20133;-87
2023/12/29 09:35:51;;;;;;;9.07;1.25;;;11.70;99.90;;;;;;4943666;28;20498;-87
2023/12/29 09:38:18;;;;;;;6.70;1.08;;;11.80;99.90;;;;;;4955650;28;20031;-89
2023/12/29 09:40:44;;;;;;;12.27;2.03;;;11.70;99.90;;;;;;4954545;28;20367;-92
2023/12/29 09:43:10;;;;;;;7.18;1.52;;;11.70;99.90;;;;;;4955300;28;20038;-94
2023/12/29 09:45:38;;;;;;;10.20;1.77;;;11.70;99.90;;;;;;4967536;28;20031;-87
2023/12/29 09:48:07;;;;;;;11.73;1.30;;;11.60;99.90;;;;;;4977131;28;20039;-90
2023/12/29 09:50:34;;;;;;;7.93;1.20;;;11.60;99.90;;;;;;4970473;28;20046;-93
2023/12/29 09:53:02;;;;;;;5.18;0.75;;;11.50;99.90;;;;;;4974340;28;20040;-93
2023/12/29 09:55:28;;;;;;;10.98;1.63;;;11.50;99.90;;;;;;4948469;29;20127;-93
2023/12/29 09:57:55;;;;;;;6.88;1.45;;;11.50;99.90;;;;;;4958831;28;20035;-92
2023/12/29 10:00:21;;;;;;;8.98;1.55;;;11.40;99.90;;;;;;4957435;28;20035;-93
2023/12/29 10:02:50;;;;;;;8.95;1.38;;;11.30;99.90;;;;;;4956748;28;20031;-93
2023/12/29 10:05:16;;;;;;;5.78;0.93;;;11.30;99.90;;;;;;4954140;28;20023;-91
2023/12/29 10:07:46;;;;;;;7.75;0.90;;;11.20;99.90;;;;;;4954932;28;20058;-93
2023/12/29 10:10:23;;;;;;;5.82;0.63;;;11.10;99.90;;;;;;4970986;28;20038;-92
2023/12/29 10:12:51;;;;;;;2.20;0.57;;;10.90;99.90;;;;;;4953254;28;20035;-91
2023/12/29 10:15:28;;;;;;;2.50;0.82;;;10.90;99.90;;;;;;4950084;29;20032;-92
2023/12/29 10:18:25;;;;;;;6.00;0.82;;;10.80;99.90;;;;;;4953030;28;20031;-91
2023/12/29 10:21:01;;;;;;;1.77;0.57;;;10.70;99.90;;;;;;4967277;28;20027;-91
2023/12/29 10:23:43;;;;;;;4.75;0.70;;;10.70;99.90;;;;;;4946548;28;20031;-91
2023/12/29 10:26:11;;;;;;;4.85;0.60;;;10.60;99.90;;;;;;4946828;29;20027;-91
2023/12/29 10:28:37;;;;;;;1.75;0.50;;;10.60;99.90;;;;;;4949019;28;20138;-89
2023/12/29 10:31:05;;;;;;;4.70;1.33;;;10.60;99.90;;;;;;4946458;29;20081;-91
2023/12/29 10:33:32;;;;;;;3.83;0.80;;;10.70;99.90;;;;;;4951267;28;20019;-91
2023/12/29 10:36:03;;;;;;;4.38;0.80;;;10.60;99.90;;;;;;4947224;28;20672;-89
2023/12/29 10:38:29;;;;;;;4.75;1.23;;;10.60;99.90;;;;;;4944947;29;20031;-90
2023/12/29 10:41:12;;;;;;;8.55;1.10;;;10.60;99.90;;;;;;4955326;28;20088;-89
2023/12/29 10:43:38;;;;;;;2.58;0.82;;;10.60;99.90;;;;;;4961852;28;20833;-89
2023/12/29 10:46:09;;;;;;;5.72;0.80;;;10.60;99.90;;;;;;4945256;29;20066;-89
2023/12/29 10:48:35;;;;;;;4.88;0.88;;;10.60;99.90;;;;;;4949039;29;20033;-89
2023/12/29 10:51:03;;;;;;;5.45;0.95;;;10.60;99.90;;;;;;4956866;28;20042;-87
2023/12/29 10:53:32;;;;;;;5.85;0.90;;;10.60;99.90;;;;;;4946839;28;20103;-89
2023/12/29 10:55:58;;;;;;;3.60;0.93;;;10.60;99.90;;;;;;4945413;28;20110;-90
2023/12/29 10:58:27;;;;;;;3.72;1.42;;;10.60;99.90;;;;;;4951694;28;20023;-89
2023/12/29 11:00:54;;;;;;;4.43;1.10;;;10.60;99.90;;;;;;4943015;28;20202;-89
2023/12/29 11:03:19;;;;;;;3.78;0.70;;;10.70;99.90;;;;;;4945730;28;20724;-86
2023/12/29 11:05:45;;;;;;;6.80;1.00;;;10.70;99.90;;;;;;4948000;28;20063;-87
2023/12/29 11:08:18;;;;;;;3.70;1.08;;;10.70;99.90;;;;;;4944816;28;20442;-89
2023/12/29 11:10:45;;;;;;;3.90;1.38;;;10.70;99.90;;;;;;4942872;28;20068;-89
2023/12/29 11:13:13;;;;;;;2.80;0.60;;;10.70;99.90;;;;;;4947438;28;20046;-87
2023/12/29 11:15:45;;;;;;;8.43;0.90;;;10.80;99.90;;;;;;4946044;28;20020;-89
2023/12/29 11:18:15;;;;;;;7.22;1.92;;;10.70;99.90;;;;;;4943761;28;20022;-88
2023/12/29 11:20:41;;;;;;;2.60;1.17;;;10.70;99.90;;;;;;4944951;28;20084;-88
2023/12/29 11:23:09;;;;;;;5.13;1.52;;;10.80;99.90;;;;;;4942743;28;20057;-89
2023/12/29 11:25:35;;;;;;;6.88;1.58;;;10.80;99.90;;;;;;4942297;28;20032;-88
2023/12/29 11:28:00;;;;;;;4.43;1.45;;;10.80;99.90;;;;;;4946679;28;20031;-90
2023/12/29 11:30:26;;;;;;;3.58;1.00;;;10.80;99.90;;;;;;4958556;28;20033;-89
2023/12/29 11:33:18;;;;;;;7.78;2.72;;;10.80;99.90;;;;;;4947171;28;20043;-89
2023/12/29 11:36:22;;;;;;;4.63;1.92;;;10.90;99.90;;;;;;4942177;28;20043;-89
2023/12/29 11:39:11;;;;;;;3.75;1.50;;;10.90;99.90;;;;;;4931809;28;20043;-89
2023/12/29 11:41:50;;;;;;;7.18;1.20;;;10.90;99.90;;;;;;4946878;28;20043;-87
2023/12/29 11:44:30;;;;;;;2.25;0.80;;;11.00;99.90;;;;;;4965491;28;20035;-90
2023/12/29 11:47:00;;;;;;;3.10;0.70;;;11.00;99.90;;;;;;4952150;28;20027;-90
2023/12/29 11:49:53;;;;;;;2.92;0.98;;;11.00;99.90;;;;;;4966934;28;20170;-90
2023/12/29 11:52:33;;;;;;;3.60;0.90;;;11.10;99.90;;;;;;4959667;28;20035;-90
2023/12/29 11:55:16;;;;;;;2.47;0.80;;;11.10;99.90;;;;;;4956889;28;20085;-90
2023/12/29 11:57:49;;;;;;;1.92;0.60;;;11.10;99.90;;;;;;4947276;28;20035;-87
2023/12/29 12:00:16;;;;;;;1.63;0.60;;;11.10;99.90;;;;;;4961251;28;20115;-87
2023/12/29 12:02:42;;;;;;;4.03;0.60;;;11.20;99.90;;;;;;4947100;28;20039;-89
2023/12/29 12:05:12;;;;;;;8.45;0.90;;;11.20;99.90;;;;;;4941032;28;20371;-87
2023/12/29 12:07:41;;;;;;;3.60;0.77;;;11.30;99.90;;;;;;4956836;28;20043;-86
2023/12/29 12:10:19;;;;;;;3.90;0.70;;;11.20;99.90;;;;;;4949020;28;20130;-89
2023/12/29 12:12:45;;;;;;;;;;;11.20;99.90;;;;;;4947191;28;20031;-90
2023/12/29 12:15:32;;;;;;;2.15;0.70;;;11.30;99.90;;;;;;4943194;28;20005;-90
2023/12/29 12:18:07;;;;;;;1.25;0.70;;;11.30;99.90;;;;;;4949110;28;20033;-91
2023/12/29 12:20:33;;;;;;;4.97;0.90;;;11.40;99.90;;;;;;4957812;28;20036;-88
2023/12/29 12:23:00;;;;;;;2.85;0.60;;;11.40;99.90;;;;;;4943859;28;20039;-90
2023/12/29 12:25:37;;;;;;;1.80;0.52;;;11.40;99.90;;;;;;4948878;29;20117;-91
2023/12/29 12:28:06;;;;;;;4.07;0.93;;;11.50;99.90;;;;;;4955693;28;20169;-91
2023/12/29 12:30:35;;;;;;;4.28;0.60;;;11.50;99.90;;;;;;4946689;28;20041;-91
2023/12/29 12:33:02;;;;;;;4.28;0.75;;;11.50;99.90;;;;;;4950356;28;20035;-92
2023/12/29 12:35:29;;;;;;;2.80;0.75;;;11.50;99.90;;;;;;4950055;28;20027;-91
2023/12/29 12:38:14;;;;;;;1.15;0.40;;;11.50;99.90;;;;;;4949081;28;20080;-92
2023/12/29 12:40:40;;;;;;;2.38;0.50;;;11.50;99.90;;;;;;4953963;28;20122;-92
2023/12/29 12:43:07;;;;;;;1.90;0.73;;;11.60;99.90;;;;;;4946297;29;20035;-91
2023/12/29 12:45:48;;;;;;;2.33;0.32;;;11.60;99.90;;;;;;4943630;28;20036;-88
2023/12/29 12:48:41;;;;;;;1.27;0.47;;;11.60;99.90;;;;;;4966555;28;20032;-93
2023/12/29 12:51:07;;;;;;;1.33;0.60;;;11.60;99.90;;;;;;4948335;28;20092;-91